Time;durP1;ratioP1;P1;durP2;ratioP2;P2;SDS_P1;SDS_P2;PMS_P1;PMS_P2;Temp;Humidity;BMP_temperature;BMP_pressure;BME280_temperature;BME280_humidity;BME280_pressure;Samples;Min_cycle;Max_cycle;Signal;HPM_P1;HPM_P2
2022/06/15 00:01:42;;;;;;;6.00;2.27;;;;;;;12.58;72.54;101487.55;1779816;80;21037;-86
2022/06/15 00:04:14;;;;;;;9.25;2.55;;;;;;;12.59;72.47;101490.67;1781131;80;21144;-88
2022/06/15 00:06:47;;;;;;;8.50;2.90;;;;;;;12.60;72.85;101480.99;1761691;80;21849;-87
2022/06/15 00:09:14;;;;;;;8.38;2.72;;;;;;;12.61;72.75;101486.73;1783596;80;21038;-86
2022/06/15 00:11:43;;;;;;;7.47;2.58;;;;;;;12.60;72.77;101480.56;1780681;80;21038;-87
2022/06/15 00:14:15;;;;;;;4.67;2.77;;;;;;;12.60;72.91;101488.91;1755515;80;21083;-86
2022/06/15 00:16:42;;;;;;;9.15;2.67;;;;;;;12.59;72.98;101482.75;1746621;80;21050;-87
2022/06/15 00:19:08;;;;;;;7.87;2.70;;;;;;;12.59;73.08;101481.43;1725174;80;21764;-87
2022/06/15 00:21:35;;;;;;;11.35;2.95;;;;;;;12.60;73.08;101480.56;1753777;80;21070;-88
2022/06/15 00:24:02;;;;;;;9.90;2.80;;;;;;;12.59;73.30;101478.79;1778410;80;21094;-90
2022/06/15 00:26:29;;;;;;;6.80;2.80;;;;;;;12.59;73.29;101485.39;1745632;81;21304;-89
2022/06/15 00:28:55;;;;;;;10.13;2.80;;;;;;;12.59;73.37;101479.19;1738353;82;21075;-88
2022/06/15 00:31:22;;;;;;;8.45;2.60;;;;;;;12.57;73.31;101480.45;1738862;82;21702;-86
2022/06/15 00:33:49;;;;;;;13.38;2.67;;;;;;;12.36;73.41;101451.70;1762184;80;21065;-89
2022/06/15 00:36:18;;;;;;;8.08;2.17;;;;;;;12.54;73.66;101493.59;1756438;80;21079;-86
2022/06/15 00:38:51;;;;;;;7.53;2.33;;;;;;;12.55;73.54;101490.09;1766068;80;21086;-90
2022/06/15 00:41:21;;;;;;;7.85;2.33;;;;;;;12.54;73.53;101497.56;1774717;80;21260;-85
2022/06/15 00:44:03;;;;;;;12.00;2.80;;;;;;;12.53;73.54;101501.03;1776495;80;21763;-88
2022/06/15 00:46:43;;;;;;;7.42;2.37;;;;;;;12.54;73.72;101498.00;1720535;83;21065;-88
2022/06/15 00:49:20;;;;;;;11.00;2.85;;;;;;;12.53;73.72;101493.55;1723186;83;21139;-91
2022/06/15 00:51:49;;;;;;;12.30;3.27;;;;;;;12.52;73.75;101496.62;1722796;83;21145;-86
2022/06/15 00:54:16;;;;;;;7.90;2.72;;;;;;;12.53;73.72;101498.83;1708744;83;21105;-89
2022/06/15 00:56:43;;;;;;;6.17;2.40;;;;;;;12.51;73.84;101494.81;1732256;81;21981;-89
2022/06/15 00:59:34;;;;;;;9.73;2.80;;;;;;;12.50;73.94;101492.13;1722330;81;21092;-87
2022/06/15 01:02:01;;;;;;;9.40;2.67;;;;;;;12.50;74.01;101492.13;1710782;83;21617;-89
2022/06/15 01:04:33;;;;;;;10.20;2.98;;;;;;;12.49;74.00;101493.00;1734437;81;21184;-86
2022/06/15 01:07:19;;;;;;;8.73;3.20;;;;;;;12.47;74.02;101496.02;1726862;82;21362;-87
2022/06/15 01:10:00;;;;;;;6.25;2.70;;;;;;;12.47;74.16;101493.38;1722838;81;22519;-90
2022/06/15 01:12:54;;;;;;;7.90;2.95;;;;;;;12.45;74.30;101495.53;1723607;81;21099;-90
2022/06/15 01:15:44;;;;;;;6.08;2.52;;;;;;;12.45;74.24;101489.37;1703099;83;21092;-87
2022/06/15 01:18:43;;;;;;;11.63;3.05;;;;;;;12.44;74.36;101484.92;1699107;83;21275;-90
2022/06/15 01:21:24;;;;;;;10.20;2.67;;;;;;;12.44;74.37;101487.16;1706428;83;21064;-91
2022/06/15 01:24:28;;;;;;;8.28;2.80;;;;;;;12.43;74.38;101485.36;1720875;82;21972;-90
2022/06/15 01:27:26;;;;;;;6.20;2.55;;;;;;;12.43;74.44;101484.47;1735866;82;21564;-88
2022/06/15 01:30:13;;;;;;;6.83;2.60;;;;;;;12.43;74.54;101483.15;1713335;81;21047;-86
2022/06/15 01:33:20;;;;;;;8.65;2.90;;;;;;;12.41;74.51;101483.53;1762282;81;21059;-90
2022/06/15 01:36:23;;;;;;;7.60;2.95;;;;;;;12.40;74.53;101487.89;1765736;80;21070;-89
2022/06/15 01:39:22;;;;;;;7.13;2.60;;;;;;;12.38;74.56;101482.11;1765846;81;21750;-89
2022/06/15 01:42:23;;;;;;;10.40;3.00;;;;;;;12.32;74.65;101480.19;1732307;81;21067;-89
2022/06/15 01:44:54;;;;;;;9.00;2.60;;;;;;;12.34;74.64;101492.12;1736572;82;21063;-91
2022/06/15 01:47:23;;;;;;;10.00;3.22;;;;;;;12.32;74.70;101490.75;1751001;81;21066;-87
2022/06/15 01:50:04;;;;;;;7.45;2.60;;;;;;;12.30;74.76;101488.48;1766747;81;21309;-89
2022/06/15 01:52:47;;;;;;;9.40;2.70;;;;;;;12.30;74.89;101488.92;1731218;80;21976;-90
2022/06/15 01:55:22;;;;;;;7.65;2.67;;;;;;;12.32;74.99;101487.22;1739921;81;21086;-89
2022/06/15 01:57:50;;;;;;;6.90;2.30;;;;;;;12.31;74.95;101484.98;1765937;80;21054;-86
2022/06/15 02:00:18;;;;;;;6.45;2.58;;;;;;;12.33;75.07;101486.35;1746638;81;21118;-87
2022/06/15 02:03:02;;;;;;;12.80;2.98;;;;;;;12.35;75.10;101489.53;1750500;81;21082;-87
2022/06/15 02:05:34;;;;;;;;;;;;;;;12.36;75.11;101489.98;1759758;81;21779;-92
2022/06/15 02:08:35;;;;;;;8.38;2.75;;;;;;;12.38;75.13;101492.23;1735432;82;20547;-87
2022/06/15 02:11:10;;;;;;;9.13;3.15;;;;;;;12.40;75.14;101492.29;1738554;82;21060;-87
2022/06/15 02:14:10;;;;;;;5.85;2.62;;;;;;;12.43;75.21;101488.43;1758426;81;21070;-85
2022/06/15 02:17:03;;;;;;;7.28;2.83;;;;;;;12.47;75.21;101492.94;1655487;85;21184;-85
2022/06/15 02:19:39;;;;;;;10.63;2.50;;;;;;;12.52;75.33;101495.70;1642831;85;23018;-87
2022/06/15 02:22:11;;;;;;;7.20;2.40;;;;;;;12.60;75.42;101498.16;1659580;85;21112;-86
2022/06/15 02:24:38;;;;;;;7.95;2.80;;;;;;;12.68;75.40;101490.45;1674908;85;21168;-87
2022/06/15 02:27:06;;;;;;;10.95;2.90;;;;;;;12.75;75.35;101485.38;1664404;85;21187;-86
2022/06/15 02:29:34;;;;;;;8.23;2.40;;;;;;;12.84;75.42;101492.24;1673334;85;21125;-88
2022/06/15 02:32:01;;;;;;;7.65;2.37;;;;;;;12.93;75.36;101485.00;1678373;85;21787;-88
2022/06/15 02:34:28;;;;;;;7.17;2.65;;;;;;;13.06;75.35;101493.24;1679095;85;21105;-87
2022/06/15 02:36:55;;;;;;;6.90;2.62;;;;;;;13.17;75.28;101497.95;1669256;85;21706;-88
2022/06/15 02:39:22;;;;;;;6.37;2.27;;;;;;;13.30;75.18;101495.64;1668894;85;21667;-86
2022/06/15 02:42:01;;;;;;;5.85;2.15;;;;;;;13.42;75.03;101499.97;1670778;85;21149;-88
2022/06/15 02:44:30;;;;;;;6.92;2.50;;;;;;;13.54;74.84;101497.61;1669206;85;22518;-89
2022/06/15 02:47:00;;;;;;;6.45;2.22;;;;;;;13.65;74.71;101493.91;1678695;85;21427;-85
2022/06/15 02:49:25;;;;;;;9.73;2.62;;;;;;;13.76;74.56;101497.71;1649578;85;21071;-88
2022/06/15 02:51:58;;;;;;;9.28;2.80;;;;;;;13.86;74.38;101498.82;1696760;83;21104;-86
2022/06/15 02:54:32;;;;;;;6.50;2.65;;;;;;;13.97;74.27;101493.34;1688617;82;21611;-89
2022/06/15 02:56:59;;;;;;;6.03;3.20;;;;;;;14.10;74.09;101497.61;1736877;81;21752;-86
2022/06/15 02:59:27;;;;;;;9.05;2.98;;;;;;;14.20;73.87;101485.91;1713631;83;21079;-89
2022/06/15 03:01:56;;;;;;;10.35;3.27;;;;;;;14.29;73.66;101486.98;1748091;80;21113;-85
2022/06/15 03:04:23;;;;;;;7.53;2.75;;;;;;;14.41;73.52;101489.00;1746098;80;21062;-89
2022/06/15 03:06:50;;;;;;;5.62;2.87;;;;;;;14.52;73.34;101487.02;1746888;80;21066;-88
2022/06/15 03:09:20;;;;;;;7.28;3.50;;;;;;;14.60;73.05;101488.53;1747649;81;21750;-88
2022/06/15 03:11:46;;;;;;;12.43;3.17;;;;;;;14.66;72.88;101489.09;1747249;82;21039;-88
2022/06/15 03:14:14;;;;;;;7.53;3.58;;;;;;;14.73;72.76;101478.67;1716590;83;21070;-88
2022/06/15 03:16:47;;;;;;;4.97;2.35;;;;;;;14.85;72.56;101488.61;1760511;80;21176;-88
2022/06/15 03:19:12;;;;;;;6.35;2.72;;;;;;;14.95;72.41;101493.20;1784690;79;21027;-87
2022/06/15 03:21:39;;;;;;;5.30;2.25;;;;;;;15.09;72.24;101492.16;1770665;80;21782;-86
2022/06/15 03:24:06;;;;;;;8.08;3.05;;;;;;;15.24;72.06;101495.52;1775900;80;21089;-86
2022/06/15 03:26:33;;;;;;;8.20;4.30;;;;;;;15.41;71.92;101489.59;1761610;80;21114;-86
2022/06/15 03:29:00;;;;;;;8.18;2.72;;;;;;;15.78;72.00;101495.54;1763525;80;21039;-85
2022/06/15 03:31:27;;;;;;;7.55;2.70;;;;;;;16.50;72.17;101505.87;1774622;80;21054;-86
2022/06/15 03:33:54;;;;;;;6.03;2.12;;;;;;;16.76;70.29;101498.63;1738300;82;21892;-86
2022/06/15 03:36:21;;;;;;;9.25;3.00;;;;;;;16.73;69.37;101495.50;1735529;82;21360;-87
2022/06/15 03:38:47;;;;;;;5.10;2.12;;;;;;;16.66;69.07;101497.63;1774787;80;21060;-87
2022/06/15 03:41:14;;;;;;;4.22;2.40;;;;;;;16.61;68.79;101502.91;1775144;80;21057;-88
2022/06/15 03:43:41;;;;;;;4.58;2.35;;;;;;;16.60;68.71;101497.13;1729257;81;21044;-88
2022/06/15 03:46:08;;;;;;;4.22;2.25;;;;;;;16.66;68.50;101503.83;1737883;82;21871;-88
2022/06/15 03:48:34;;;;;;;8.40;2.25;;;;;;;16.81;68.37;101493.81;1757980;81;21069;-88
2022/06/15 03:51:01;;;;;;;5.78;2.52;;;;;;;17.12;68.48;101504.83;1773803;80;21041;-87
2022/06/15 03:53:28;;;;;;;4.55;1.50;;;;;;;17.84;68.86;101504.13;1774450;80;21636;-88
2022/06/15 03:55:55;;;;;;;4.10;1.80;;;;;;;19.17;68.85;101493.63;1784003;79;21047;-87
2022/06/15 03:58:21;;;;;;;6.00;2.85;;;;;;;20.95;67.89;101502.21;1774206;80;21760;-86
2022/06/15 04:00:49;;;;;;;4.47;1.80;;;;;;;22.51;65.42;101492.34;1774991;80;21370;-86
2022/06/15 04:03:16;;;;;;;3.92;1.75;;;;;;;23.80;63.37;101495.80;1767111;80;21548;-85
2022/06/15 04:05:49;;;;;;;6.10;2.12;;;;;;;25.03;61.25;101505.39;1751019;80;21292;-87
2022/06/15 04:08:35;;;;;;;4.83;1.62;;;;;;;25.66;57.70;101500.75;1773967;80;21021;-86
2022/06/15 04:11:09;;;;;;;3.72;1.80;;;;;;;25.87;56.82;101492.59;1764132;80;22647;-89
2022/06/15 04:13:36;;;;;;;3.72;1.42;;;;;;;26.57;54.58;101497.34;1769690;80;21052;-87
2022/06/15 04:16:06;;;;;;;4.35;1.65;;;;;;;26.93;53.46;101507.09;1745853;82;22118;-85
2022/06/15 04:18:35;;;;;;;4.10;1.80;;;;;;;27.16;52.37;101495.58;1714723;82;21063;-87
2022/06/15 04:21:04;;;;;;;9.65;4.05;;;;;;;27.73;51.83;101509.45;1733806;81;21050;-88
2022/06/15 04:23:31;;;;;;;8.23;2.37;;;;;;;29.05;51.02;101514.50;1727632;81;21854;-88
2022/06/15 04:26:00;;;;;;;3.77;2.55;;;;;;;30.12;48.81;101508.23;1719900;81;21090;-91
2022/06/15 04:28:30;;;;;;;4.65;2.00;;;;;;;31.02;47.22;101513.66;1719967;82;21083;-88
2022/06/15 04:30:56;;;;;;;3.70;1.55;;;;;;;31.56;46.27;101515.48;1709325;82;21554;-88
2022/06/15 04:33:24;;;;;;;4.45;1.95;;;;;;;32.50;45.16;101523.28;1744905;80;21067;-86
2022/06/15 04:35:51;;;;;;;4.12;2.12;;;;;;;33.10;43.22;101517.22;1742217;82;21767;-87
2022/06/15 04:38:18;;;;;;;6.17;1.80;;;;;;;33.33;41.81;101521.35;1750759;80;21102;-88
2022/06/15 04:40:45;;;;;;;4.58;2.08;;;;;;;33.42;40.36;101518.08;1734050;82;21095;-86
2022/06/15 04:43:13;;;;;;;5.58;4.78;;;;;;;33.36;39.96;101517.09;1740530;81;21062;-89
2022/06/15 04:45:40;;;;;;;6.08;1.80;;;;;;;33.59;39.20;101525.77;1740831;81;21162;-86
2022/06/15 04:48:09;;;;;;;4.65;2.00;;;;;;;34.12;38.91;101520.76;1740030;81;21752;-87
2022/06/15 04:50:37;;;;;;;3.77;2.70;;;;;;;34.20;37.98;101526.18;1720793;82;21057;-86
2022/06/15 04:53:07;;;;;;;6.10;2.12;;;;;;;34.05;36.66;101518.88;1778402;80;21028;-88
2022/06/15 04:55:34;;;;;;;3.47;1.62;;;;;;;33.83;36.63;101524.81;1755937;80;21013;-88
2022/06/15 04:58:00;;;;;;;7.85;1.82;;;;;;;33.64;35.71;101530.01;1778112;80;21145;-88
2022/06/15 05:00:32;;;;;;;2.83;1.90;;;;;;;33.25;35.38;101535.94;1783134;79;22692;-90
2022/06/15 05:02:58;;;;;;;3.15;1.77;;;;;;;32.67;35.24;101531.92;1746612;81;21051;-93
2022/06/15 05:05:25;;;;;;;5.42;2.20;;;;;;;31.95;34.47;101536.64;1720877;81;21575;-89
2022/06/15 05:07:53;;;;;;;3.25;1.47;;;;;;;31.68;35.44;101537.58;1773619;80;21057;-88
2022/06/15 05:10:39;;;;;;;6.50;1.98;;;;;;;31.44;34.69;101537.85;1780938;80;21065;-88
2022/06/15 05:13:06;;;;;;;4.40;2.50;;;;;;;31.30;35.46;101541.24;1766241;78;21764;-87
2022/06/15 05:15:33;;;;;;;8.48;1.92;;;;;;;31.20;35.05;101547.62;1784772;80;21080;-88
2022/06/15 05:18:04;;;;;;;4.22;2.00;;;;;;;30.54;35.34;101557.53;1779871;80;21066;-89
2022/06/15 05:20:31;;;;;;;6.58;2.12;;;;;;;30.70;35.65;101554.09;1773655;80;21146;-90
2022/06/15 05:23:07;;;;;;;3.72;1.80;;;;;;;30.74;35.17;101557.06;1751059;81;21098;-91
2022/06/15 05:25:34;;;;;;;6.15;1.52;;;;;;;29.84;34.77;101556.98;1732142;81;21765;-86
2022/06/15 05:28:02;;;;;;;4.47;1.77;;;;;;;29.00;35.67;101558.55;1742619;81;21035;-87
2022/06/15 05:30:29;;;;;;;4.20;1.95;;;;;;;28.94;36.26;101557.41;1741976;81;21091;-85
2022/06/15 05:32:55;;;;;;;5.45;2.50;;;;;;;29.11;35.82;101564.88;1749474;81;21584;-87
2022/06/15 05:35:22;;;;;;;6.03;2.15;;;;;;;28.74;36.16;101562.72;1742357;80;21074;-85
2022/06/15 05:37:49;;;;;;;7.92;1.90;;;;;;;28.53;36.23;101564.42;1750637;81;21715;-86
2022/06/15 05:40:16;;;;;;;5.37;2.25;;;;;;;27.82;36.24;101567.77;1754487;81;21036;-85
2022/06/15 05:42:42;;;;;;;9.15;4.45;;;;;;;26.81;36.42;101565.09;1752576;81;21548;-87
2022/06/15 05:45:09;;;;;;;4.92;2.02;;;;;;;25.89;37.26;101571.64;1741172;81;21085;-85
2022/06/15 05:47:36;;;;;;;4.97;1.75;;;;;;;25.11;38.09;101568.51;1748446;81;21075;-85
2022/06/15 05:50:03;;;;;;;5.95;1.72;;;;;;;24.43;38.69;101556.45;1752150;81;21757;-85
2022/06/15 05:52:30;;;;;;;6.42;3.80;;;;;;;23.70;39.45;101542.52;1738291;81;21060;-87
2022/06/15 05:54:58;;;;;;;3.30;1.60;;;;;;;23.46;40.43;101578.30;1739265;81;21066;-88
2022/06/15 05:57:25;;;;;;;4.60;2.50;;;;;;;23.16;40.77;101563.97;1753467;81;21291;-88
2022/06/15 05:59:53;;;;;;;6.50;1.80;;;;;;;22.96;41.51;101577.19;1752576;81;21047;-85
2022/06/15 06:02:21;;;;;;;3.50;1.47;;;;;;;22.87;41.97;101577.30;1739902;81;21757;-84
2022/06/15 06:04:47;;;;;;;5.35;2.10;;;;;;;22.88;42.35;101579.06;1756681;81;21628;-85
2022/06/15 06:07:14;;;;;;;4.30;2.05;;;;;;;22.95;42.46;101582.11;1757260;81;21043;-85
2022/06/15 06:09:41;;;;;;;4.42;2.10;;;;;;;22.93;42.46;101577.22;1740472;81;21170;-86
2022/06/15 06:12:08;;;;;;;3.60;2.25;;;;;;;22.95;42.65;101580.77;1754207;81;21066;-89
2022/06/15 06:14:37;;;;;;;5.12;3.05;;;;;;;22.67;42.66;101581.14;1753111;81;21901;-86
2022/06/15 06:17:05;;;;;;;3.45;1.80;;;;;;;22.58;43.24;101589.72;1737969;81;21540;-88
2022/06/15 06:19:32;;;;;;;7.22;2.20;;;;;;;22.55;43.06;101585.76;1743442;81;21031;-86
2022/06/15 06:21:59;;;;;;;2.30;1.60;;;;;;;22.25;42.94;101590.50;1742860;81;21048;-86
2022/06/15 06:24:26;;;;;;;4.08;1.67;;;;;;;22.10;43.83;101587.52;1733275;82;21576;-89
2022/06/15 06:27:01;;;;;;;7.08;1.80;;;;;;;22.37;43.99;101587.71;1733225;80;42378;-86
2022/06/15 06:29:31;;;;;;;4.15;1.80;;;;;;;22.65;43.90;101576.22;1751430;80;21043;-87
2022/06/15 06:31:58;;;;;;;3.08;1.95;;;;;;;22.82;43.57;101584.06;1733331;81;21043;-88
2022/06/15 06:34:25;;;;;;;2.08;1.37;;;;;;;22.82;43.61;101588.55;1733599;81;21076;-85
2022/06/15 06:36:53;;;;;;;5.35;1.62;;;;;;;22.72;43.38;101587.78;1727073;81;21084;-86
2022/06/15 06:39:23;;;;;;;4.50;1.55;;;;;;;22.60;43.44;101586.56;1740047;81;21772;-88
2022/06/15 06:41:57;;;;;;;4.53;1.67;;;;;;;22.48;43.26;101580.44;1723724;82;21055;-89
2022/06/15 06:44:24;;;;;;;5.40;1.32;;;;;;;22.46;43.78;101584.05;1747432;81;21109;-88
2022/06/15 06:46:52;;;;;;;3.27;1.30;;;;;;;22.50;43.51;101579.09;1748632;81;21098;-88
2022/06/15 06:49:19;;;;;;;9.03;2.65;;;;;;;22.46;43.45;101582.71;1733458;81;21091;-86
2022/06/15 06:51:46;;;;;;;3.83;1.90;;;;;;;22.41;43.33;101602.90;1750172;81;21753;-88
2022/06/15 06:54:16;;;;;;;3.27;1.98;;;;;;;22.26;42.94;101591.88;1745227;81;21114;-88
2022/06/15 06:56:43;;;;;;;2.45;1.42;;;;;;;22.18;43.03;101592.81;1735030;81;21051;-88
2022/06/15 06:59:11;;;;;;;3.37;2.20;;;;;;;22.10;43.11;101592.42;1752464;81;21158;-86
2022/06/15 07:01:41;;;;;;;6.05;1.90;;;;;;;21.93;42.95;101587.67;1738717;81;21063;-89
2022/06/15 07:04:11;;;;;;;3.35;1.62;;;;;;;21.79;43.15;101590.91;1752937;81;21748;-86
2022/06/15 07:06:38;;;;;;;3.15;1.50;;;;;;;21.63;43.25;101596.39;1739530;81;21075;-86
2022/06/15 07:09:05;;;;;;;5.17;2.67;;;;;;;21.51;43.48;101593.36;1733742;81;21094;-89
2022/06/15 07:11:32;;;;;;;3.45;1.60;;;;;;;21.33;43.57;101594.33;1733096;81;21584;-86
2022/06/15 07:13:59;;;;;;;4.22;1.60;;;;;;;21.08;43.93;101597.59;1737532;81;21071;-89
2022/06/15 07:16:26;;;;;;;4.45;1.35;;;;;;;21.02;44.24;101588.70;1749420;81;22625;-88
2022/06/15 07:18:53;;;;;;;3.87;1.62;;;;;;;21.08;44.24;101602.07;1740942;81;21024;-89
2022/06/15 07:21:23;;;;;;;2.40;1.40;;;;;;;21.02;43.97;101596.30;1764691;79;21069;-89
2022/06/15 07:23:52;;;;;;;2.25;1.42;;;;;;;20.95;43.95;101600.78;1775690;80;21089;-90
2022/06/15 07:26:21;;;;;;;2.52;1.45;;;;;;;20.95;44.08;101606.59;1751074;80;21063;-86
2022/06/15 07:28:48;;;;;;;2.58;1.27;;;;;;;21.02;44.33;101606.09;1753120;81;22625;-89
2022/06/15 07:31:27;;;;;;;2.50;1.00;;;;;;;21.02;44.42;101583.34;1755279;80;21159;-87
2022/06/15 07:33:54;;;;;;;6.30;2.42;;;;;;;21.23;44.14;101614.45;1760563;81;21066;-90
2022/06/15 07:36:23;;;;;;;4.97;3.30;;;;;;;21.17;44.10;101606.02;1759139;80;21026;-89
2022/06/15 07:38:54;;;;;;;3.92;1.90;;;;;;;21.17;44.10;101606.02;1761762;80;21065;-89
2022/06/15 07:41:21;;;;;;;6.40;1.70;;;;;;;21.14;44.00;101604.25;1775063;80;21708;-90
2022/06/15 07:43:48;;;;;;;4.97;2.08;;;;;;;21.04;43.65;101611.91;1775371;80;21062;-89
2022/06/15 07:46:15;;;;;;;2.67;1.98;;;;;;;20.70;44.32;101597.32;1775482;80;21490;-86
2022/06/15 07:51:34;;;;;;;7.12;3.92;;;;;;;20.76;44.42;101601.30;1770892;80;21075;-85
2022/06/15 07:54:02;;;;;;;4.85;2.52;;;;;;;21.01;44.27;101586.47;1775878;80;21757;-88
2022/06/15 07:56:29;;;;;;;6.45;3.98;;;;;;;21.01;44.27;101586.47;1775427;80;21055;-89
2022/06/15 07:58:56;;;;;;;2.37;1.20;;;;;;;21.21;44.04;101616.26;1774103;80;22313;-88
2022/06/15 08:01:23;;;;;;;3.10;1.40;;;;;;;20.80;43.94;101595.49;1760295;80;21130;-88
2022/06/15 08:03:51;;;;;;;3.00;1.85;;;;;;;20.80;43.94;101595.49;1751866;80;21387;-85
2022/06/15 08:06:17;;;;;;;8.35;3.50;;;;;;;20.99;44.80;101617.72;1759493;80;21693;-85
2022/06/15 08:08:44;;;;;;;8.73;2.00;;;;;;;20.99;44.80;101617.72;1775024;80;21156;-86
2022/06/15 08:11:11;;;;;;;2.92;1.80;;;;;;;21.13;44.85;101618.98;1771944;80;21606;-85
2022/06/15 08:13:37;;;;;;;2.80;1.40;;;;;;;21.07;44.83;101605.63;1755566;80;21066;-88
2022/06/15 08:16:04;;;;;;;4.50;1.60;;;;;;;21.25;45.04;101619.39;1766953;80;21144;-88
2022/06/15 08:18:34;;;;;;;6.45;1.72;;;;;;;21.26;44.83;101623.37;1753469;81;21738;-89
2022/06/15 08:21:05;;;;;;;9.78;5.80;;;;;;;21.11;44.58;101625.67;1758977;80;21606;-85
2022/06/15 08:23:34;;;;;;;4.10;1.67;;;;;;;21.02;44.77;101631.52;1755418;81;21048;-89
2022/06/15 08:26:04;;;;;;;4.47;2.10;;;;;;;20.92;44.84;101627.54;1735927;81;21108;-85
2022/06/15 08:28:34;;;;;;;2.08;1.10;;;;;;;20.93;44.96;101633.81;1754807;80;21130;-88
2022/06/15 08:31:01;;;;;;;3.10;1.90;;;;;;;20.97;45.08;101631.55;1754789;81;21758;-88
2022/06/15 08:33:28;;;;;;;4.00;2.15;;;;;;;20.96;44.67;101635.99;1749498;80;21578;-88
2022/06/15 08:35:55;;;;;;;3.42;2.58;;;;;;;20.84;44.51;101629.83;1735837;81;21075;-88
2022/06/15 08:38:23;;;;;;;2.05;1.42;;;;;;;20.78;44.58;101636.09;1754942;80;21038;-85
2022/06/15 08:40:58;;;;;;;1.82;1.25;;;;;;;20.78;44.28;101631.61;1755033;81;21093;-88
2022/06/15 08:43:36;;;;;;;6.03;2.05;;;;;;;20.75;44.14;101630.28;1747682;81;21802;-85
2022/06/15 08:46:15;;;;;;;2.95;1.50;;;;;;;20.61;44.05;101624.09;1760633;80;21055;-85
2022/06/15 08:49:11;;;;;;;5.35;1.50;;;;;;;20.48;44.40;101611.61;1740222;81;21039;-89
2022/06/15 08:51:43;;;;;;;2.83;1.60;;;;;;;20.72;44.61;101632.06;1753493;80;21751;-85
2022/06/15 08:54:26;;;;;;;2.62;1.32;;;;;;;20.82;44.06;101637.85;1741195;80;21104;-85
2022/06/15 08:57:14;;;;;;;2.50;2.17;;;;;;;20.89;44.22;101637.36;1752832;81;21671;-85
2022/06/15 08:59:57;;;;;;;4.80;2.52;;;;;;;21.07;44.17;101637.30;1693130;83;21139;-88
2022/06/15 09:02:54;;;;;;;4.62;2.15;;;;;;;21.35;43.89;101635.83;1742436;80;21122;-84
2022/06/15 09:05:32;;;;;;;2.55;1.30;;;;;;;21.62;44.20;101640.61;1755511;81;21026;-87
2022/06/15 09:08:36;;;;;;;1.98;1.22;;;;;;;21.82;43.24;101640.02;1755704;81;21034;-86
2022/06/15 09:11:44;;;;;;;2.83;1.13;;;;;;;21.88;43.19;101646.66;1755760;80;21842;-85
2022/06/15 09:14:28;;;;;;;4.08;1.98;;;;;;;21.87;43.05;101641.34;1754751;80;21055;-85
2022/06/15 09:17:06;;;;;;;3.98;1.57;;;;;;;21.69;43.05;101602.16;1754186;81;21069;-85
2022/06/15 09:19:37;;;;;;;4.15;1.45;;;;;;;21.69;43.05;101602.16;1755005;81;21053;-86
2022/06/15 09:22:10;;;;;;;3.15;1.17;;;;;;;21.91;43.18;101627.89;1766983;80;21085;-85
2022/06/15 09:24:48;;;;;;;2.25;1.27;;;;;;;22.03;42.67;101637.61;1772532;80;21783;-90
2022/06/15 09:27:21;;;;;;;3.27;1.10;;;;;;;22.14;42.74;101626.34;1765604;80;21803;-86
2022/06/15 09:29:58;;;;;;;1.65;1.00;;;;;;;22.26;42.18;101637.89;1773853;80;21054;-89
2022/06/15 09:32:32;;;;;;;2.67;1.10;;;;;;;21.98;41.34;101634.53;1767992;80;21663;-86
2022/06/15 09:35:17;;;;;;;3.52;1.20;;;;;;;21.65;41.88;101631.22;1774867;80;21114;-86
2022/06/15 09:37:51;;;;;;;5.37;2.27;;;;;;;21.75;42.05;101647.66;1770778;80;21805;-90
2022/06/15 09:40:18;;;;;;;3.62;1.52;;;;;;;21.81;42.36;101632.90;1748452;80;21183;-87
2022/06/15 09:43:02;;;;;;;3.20;1.30;;;;;;;22.03;42.63;101632.70;1768022;80;21426;-86
2022/06/15 09:45:40;;;;;;;5.70;2.67;;;;;;;21.87;42.04;101652.94;1755272;80;21195;-86
2022/06/15 09:48:43;;;;;;;4.72;2.05;;;;;;;21.87;42.04;101652.94;1774144;80;21044;-86
2022/06/15 09:51:26;;;;;;;2.50;1.55;;;;;;;21.43;41.98;101613.89;1743378;80;22678;-85
2022/06/15 09:54:26;;;;;;;4.45;1.77;;;;;;;21.59;42.45;101652.70;1770241;80;27625;-85
2022/06/15 09:56:53;;;;;;;3.05;1.25;;;;;;;21.89;42.29;101633.72;1775123;80;21452;-88
2022/06/15 09:59:20;;;;;;;4.60;1.60;;;;;;;21.89;42.29;101633.72;1782847;80;21750;-88
2022/06/15 10:01:47;;;;;;;1.57;0.80;;;;;;;22.00;42.42;101648.81;1775496;80;21175;-85
2022/06/15 10:04:24;;;;;;;2.05;0.98;;;;;;;22.10;42.17;101638.47;1774523;80;22426;-89
2022/06/15 10:06:59;;;;;;;2.92;1.45;;;;;;;22.12;42.13;101633.52;1773889;80;21568;-86
2022/06/15 10:09:30;;;;;;;8.65;6.28;;;;;;;22.19;41.38;101658.50;1774150;80;21026;-85
2022/06/15 10:14:47;;;;;;;2.50;1.35;;;;;;;21.99;41.48;101653.29;1756835;80;21110;-85
2022/06/15 10:17:30;;;;;;;3.33;1.60;;;;;;;22.07;41.90;101647.86;1729586;80;21773;-85
2022/06/15 10:19:57;;;;;;;2.47;1.87;;;;;;;22.19;41.99;101638.38;1773553;80;21061;-85
2022/06/15 10:22:29;;;;;;;3.17;1.67;;;;;;;22.37;41.29;101671.33;1777028;80;21044;-86
2022/06/15 10:24:58;;;;;;;4.50;1.10;;;;;;;22.41;41.12;101661.91;1758896;79;21050;-86
2022/06/15 10:27:35;;;;;;;6.03;2.20;;;;;;;22.65;41.21;101660.75;1776779;80;21066;-89
2022/06/15 10:30:16;;;;;;;2.87;1.40;;;;;;;22.90;40.75;101660.04;1757530;80;21767;-89
2022/06/15 10:33:03;;;;;;;2.72;1.05;;;;;;;23.09;40.80;101654.02;1778215;79;21060;-88
2022/06/15 10:35:32;;;;;;;5.33;1.27;;;;;;;23.43;40.59;101662.98;1772446;80;21551;-86
2022/06/15 10:38:01;;;;;;;7.97;3.30;;;;;;;23.53;40.12;101651.64;1781220;79;21538;-86
2022/06/15 10:40:35;;;;;;;2.62;1.50;;;;;;;23.46;39.62;101662.94;1781190;80;21086;-85
2022/06/15 10:43:07;;;;;;;6.78;2.42;;;;;;;23.31;39.89;101664.47;1776291;80;21716;-85
2022/06/15 10:45:42;;;;;;;4.62;2.00;;;;;;;23.21;39.90;101657.00;1777463;80;21244;-89
2022/06/15 10:48:20;;;;;;;3.90;1.07;;;;;;;23.19;40.02;101652.56;1747691;81;21054;-86
2022/06/15 10:51:08;;;;;;;4.78;1.60;;;;;;;23.32;40.29;101646.12;1744031;81;21077;-86
2022/06/15 10:53:50;;;;;;;2.00;0.90;;;;;;;23.56;39.91;101661.47;1746763;81;21031;-86
2022/06/15 11:02:38;;;;;;;1.75;1.30;;;;;;;23.38;39.28;101646.48;1725242;82;21110;-87
2022/06/15 11:05:13;;;;;;;3.02;0.90;;;;;;;23.70;39.38;101643.78;1745585;81;21224;-87
2022/06/15 11:08:01;;;;;;;2.98;0.93;;;;;;;23.90;39.32;101638.14;1744569;80;21038;-87
2022/06/15 11:10:44;;;;;;;3.45;1.75;;;;;;;23.94;38.74;101642.55;1745290;81;21765;-87
2022/06/15 11:13:35;;;;;;;6.83;4.20;;;;;;;23.58;38.47;101644.41;1719273;82;21125;-86
2022/06/15 11:19:09;;;;;;;2.08;1.50;;;;;;;23.23;39.05;101646.23;1770848;80;21037;-87
2022/06/15 11:21:47;;;;;;;3.62;1.98;;;;;;;23.22;39.21;101624.33;1773851;80;21200;-86
2022/06/15 11:25:01;;;;;;;3.85;1.40;;;;;;;23.56;39.09;101648.03;1773893;80;21810;-86
2022/06/15 11:27:35;;;;;;;4.55;1.65;;;;;;;23.44;38.08;101640.59;1776708;80;21029;-88
2022/06/15 11:30:22;;;;;;;2.77;1.10;;;;;;;23.15;37.67;101646.34;1774327;80;21086;-85
2022/06/15 11:33:15;;;;;;;6.05;4.95;;;;;;;23.03;37.91;101644.70;1774268;79;21039;-85
2022/06/15 11:36:00;;;;;;;2.50;1.62;;;;;;;22.98;37.95;101643.84;1777962;80;21339;-85
2022/06/15 11:38:50;;;;;;;6.85;3.55;;;;;;;23.12;38.32;101631.59;1772688;79;23056;-86
2022/06/15 11:41:41;;;;;;;4.58;3.05;;;;;;;23.18;38.26;101638.69;1776099;80;21145;-86
2022/06/15 11:44:16;;;;;;;3.60;1.92;;;;;;;23.19;38.25;101636.45;1780111;80;21078;-86
2022/06/15 11:47:06;;;;;;;3.12;1.12;;;;;;;23.26;38.16;101635.47;1775981;79;21066;-86
2022/06/15 11:49:57;;;;;;;3.27;0.90;;;;;;;23.30;38.19;101630.48;1780605;80;21034;-89
2022/06/15 11:52:54;;;;;;;3.58;1.07;;;;;;;23.47;37.84;101629.77;1763298;80;22807;-89
2022/06/15 11:55:46;;;;;;;3.62;1.32;;;;;;;23.65;38.17;101631.78;1778862;79;21086;-88
2022/06/15 11:58:47;;;;;;;1.92;1.00;;;;;;;23.88;37.68;101633.24;1775499;79;21504;-89
2022/06/15 12:01:48;;;;;;;3.80;1.20;;;;;;;24.03;37.54;101629.83;1787661;79;21076;-89
2022/06/15 12:04:42;;;;;;;3.42;2.05;;;;;;;24.00;37.02;101619.58;1777210;79;21050;-89
2022/06/15 12:07:17;;;;;;;2.98;1.00;;;;;;;24.13;37.24;101617.10;1773500;80;22537;-89
2022/06/15 12:10:01;;;;;;;1.75;1.10;;;;;;;24.24;36.93;101620.95;1777842;79;21444;-89